Time;durP1;ratioP1;P1;durP2;ratioP2;P2;SDS_P1;SDS_P2;PMS_P1;PMS_P2;Temp;Humidity;BMP_temperature;BMP_pressure;BME280_temperature;BME280_humidity;BME280_pressure;Samples;Min_cycle;Max_cycle;Signal;HPM_P1;HPM_P2
2021/06/18 00:00:23;;;;;;;7.83;2.50;;;;;;;20.80;100.00;99251.09;1702500;83;20943;-73
2021/06/18 00:02:51;;;;;;;5.35;2.27;;;;;;;20.75;100.00;99248.15;1702625;83;21062;-72
2021/06/18 00:05:19;;;;;;;2.77;2.00;;;;;;;20.73;100.00;99241.12;1714733;83;20919;-71
2021/06/18 00:07:48;;;;;;;5.42;2.10;;;;;;;20.72;100.00;99240.25;1731346;83;20987;-72
2021/06/18 00:10:19;;;;;;;5.30;2.27;;;;;;;20.70;100.00;99242.60;1706996;83;20979;-70
2021/06/18 00:12:47;;;;;;;5.47;2.35;;;;;;;20.69;100.00;99248.91;1702142;84;20908;-71
2021/06/18 00:15:16;;;;;;;2.12;1.90;;;;;;;20.68;100.00;99242.67;1702526;83;21095;-72
2021/06/18 00:17:44;;;;;;;4.90;1.80;;;;;;;20.68;100.00;99245.82;1701969;84;20992;-71
2021/06/18 00:20:14;;;;;;;4.72;2.20;;;;;;;20.70;100.00;99245.28;1731083;83;20942;-71
2021/06/18 00:22:43;;;;;;;4.05;2.08;;;;;;;20.69;100.00;99249.77;1722849;83;21414;-71
2021/06/18 00:25:12;;;;;;;5.83;2.30;;;;;;;20.68;100.00;99252.52;1702291;84;20915;-72
2021/06/18 00:27:44;;;;;;;5.15;2.00;;;;;;;20.66;100.00;99250.38;1702234;83;21426;-72
2021/06/18 00:30:13;;;;;;;5.30;2.00;;;;;;;20.66;100.00;99257.95;1724635;83;21414;-71
2021/06/18 00:32:44;;;;;;;6.47;2.27;;;;;;;20.67;100.00;99255.67;1727042;83;21404;-72
2021/06/18 00:35:13;;;;;;;3.83;1.98;;;;;;;20.67;100.00;99261.03;1723101;83;21428;-71
2021/06/18 00:37:43;;;;;;;9.38;2.08;;;;;;;20.66;100.00;99266.47;1722921;83;21000;-71
2021/06/18 00:40:12;;;;;;;4.33;2.12;;;;;;;20.65;100.00;99256.69;1707219;83;21106;-71
2021/06/18 00:42:41;;;;;;;8.25;2.12;;;;;;;20.64;100.00;99254.47;1696398;84;20985;-71
2021/06/18 00:45:10;;;;;;;4.53;2.08;;;;;;;20.64;100.00;99253.60;1696136;84;21435;-71
2021/06/18 00:47:53;;;;;;;5.17;2.10;;;;;;;20.63;100.00;99248.71;1709068;83;20936;-70
2021/06/18 00:50:22;;;;;;;6.47;2.22;;;;;;;20.60;100.00;99244.83;1710359;82;21466;-71
2021/06/18 00:52:51;;;;;;;4.12;2.22;;;;;;;20.57;100.00;99241.42;1696538;83;21439;-71
2021/06/18 00:55:20;;;;;;;5.83;2.30;;;;;;;20.56;100.00;99248.59;1708974;83;21410;-72
2021/06/18 00:57:55;;;;;;;7.28;2.22;;;;;;;20.55;100.00;99247.31;1698613;83;21430;-72
2021/06/18 01:00:24;;;;;;;4.20;2.02;;;;;;;20.53;100.00;99240.69;1704008;83;21009;-72
2021/06/18 01:02:54;;;;;;;5.62;2.20;;;;;;;20.52;100.00;99241.63;1725277;83;20915;-72
2021/06/18 01:05:25;;;;;;;2.12;1.80;;;;;;;20.48;100.00;99237.81;1725166;83;21161;-70
2021/06/18 01:08:07;;;;;;;2.42;1.85;;;;;;;20.46;100.00;99235.67;1725069;82;21343;-71
2021/06/18 01:11:06;;;;;;;4.72;2.20;;;;;;;20.42;100.00;99230.92;1717592;83;21441;-71
2021/06/18 01:13:52;;;;;;;5.58;2.02;;;;;;;20.39;100.00;99235.05;1696084;83;21445;-71
2021/06/18 01:16:46;;;;;;;5.20;1.80;;;;;;;20.35;100.00;99234.31;1696598;83;21458;-72
2021/06/18 01:19:28;;;;;;;1.92;1.70;;;;;;;20.32;100.00;99232.20;1696177;83;21112;-71
2021/06/18 01:22:03;;;;;;;4.37;1.70;;;;;;;20.30;100.00;99228.26;1711004;83;20936;-71
2021/06/18 01:24:51;;;;;;;7.00;1.82;;;;;;;20.27;100.00;99215.00;1724777;83;21039;-70
2021/06/18 01:27:34;;;;;;;4.20;1.80;;;;;;;20.26;100.00;99214.60;1723742;82;20967;-71
2021/06/18 01:30:09;;;;;;;4.95;1.87;;;;;;;20.24;100.00;99215.14;1721382;83;20977;-72
2021/06/18 01:32:55;;;;;;;3.67;1.90;;;;;;;20.22;100.00;99212.12;1723255;81;21103;-72
2021/06/18 01:35:27;;;;;;;4.45;1.80;;;;;;;20.21;100.00;99219.77;1721905;82;20885;-72
2021/06/18 01:37:57;;;;;;;;;;;;;;;20.22;100.00;99218.36;1717736;83;21034;-72
2021/06/18 01:40:29;;;;;;;4.62;1.60;;;;;;;20.20;100.00;99208.17;1702125;83;20435;-71
2021/06/18 01:42:57;;;;;;;4.53;1.80;;;;;;;20.15;100.00;99203.50;1702075;84;21438;-71
2021/06/18 01:45:26;;;;;;;5.20;1.77;;;;;;;20.10;100.00;99206.38;1702131;83;21059;-71
2021/06/18 01:47:56;;;;;;;3.40;1.65;;;;;;;20.08;100.00;99201.55;1702115;84;21466;-71
2021/06/18 01:50:26;;;;;;;7.75;1.82;;;;;;;20.06;100.00;99194.06;1702147;84;21465;-70
2021/06/18 01:53:08;;;;;;;4.47;1.87;;;;;;;20.04;100.00;99197.74;1709874;82;20899;-72
2021/06/18 01:55:36;;;;;;;4.15;1.77;;;;;;;20.02;100.00;99195.13;1705327;82;20956;-70
2021/06/18 01:58:07;;;;;;;7.60;1.72;;;;;;;19.99;100.00;99199.28;1702655;83;21066;-71
2021/06/18 02:00:39;;;;;;;3.02;1.50;;;;;;;19.96;100.00;99191.38;1717437;83;21441;-69
2021/06/18 02:03:11;;;;;;;3.95;1.70;;;;;;;19.96;100.00;99191.85;1702159;83;21449;-70
2021/06/18 02:05:40;;;;;;;7.62;2.00;;;;;;;19.93;100.00;99198.21;1731841;83;21486;-70
2021/06/18 02:08:09;;;;;;;3.12;1.95;;;;;;;19.92;100.00;99195.60;1719180;83;21478;-72
2021/06/18 02:10:39;;;;;;;2.20;1.72;;;;;;;19.89;100.00;99199.28;1702322;84;21768;-72
2021/06/18 02:13:10;;;;;;;2.58;1.55;;;;;;;19.87;100.00;99189.11;1702371;83;21565;-72
2021/06/18 02:15:41;;;;;;;3.55;1.60;;;;;;;19.86;100.00;99191.81;1702782;83;20904;-72
2021/06/18 02:18:12;;;;;;;4.10;1.72;;;;;;;19.85;100.00;99195.43;1702338;84;20912;-72
2021/06/18 02:20:41;;;;;;;2.50;1.70;;;;;;;19.84;100.00;99195.90;1702399;84;20870;-72
2021/06/18 02:23:10;;;;;;;2.40;1.62;;;;;;;19.83;100.00;99193.28;1703897;83;21477;-72
2021/06/18 02:25:38;;;;;;;2.75;1.40;;;;;;;19.80;100.00;99193.83;1704236;83;21000;-72
2021/06/18 02:28:07;;;;;;;2.87;1.57;;;;;;;19.81;100.00;99197.37;1702268;83;20911;-72
2021/06/18 02:30:38;;;;;;;3.80;1.80;;;;;;;19.82;100.00;99195.09;1703112;83;21510;-71
2021/06/18 02:33:14;;;;;;;6.67;1.62;;;;;;;19.83;100.00;99199.52;1702044;84;21010;-72
2021/06/18 02:35:36;;;;;;;5.30;1.60;;;;;;;19.83;100.00;99202.19;1692154;83;22100;-72
2021/06/18 02:38:10;;;;;;;2.07;1.53;;;;;;;19.81;100.00;99214.30;1695106;83;20997;-71
2021/06/18 02:40:39;;;;;;;4.60;1.52;;;;;;;19.76;100.00;99207.41;1693911;84;21366;-72
2021/06/18 02:43:08;;;;;;;3.95;1.62;;;;;;;19.73;100.00;99206.20;1694710;84;21506;-70
2021/06/18 02:45:37;;;;;;;4.15;1.50;;;;;;;19.70;100.00;99219.23;1695739;83;21087;-72
2021/06/18 02:48:27;;;;;;;3.27;1.40;;;;;;;19.69;100.00;99218.84;1723596;83;21149;-71
2021/06/18 02:51:12;;;;;;;4.15;1.50;;;;;;;19.64;100.00;99218.16;1723814;83;20943;-71
2021/06/18 02:53:49;;;;;;;7.03;1.70;;;;;;;19.63;100.00;99215.55;1667773;83;21627;-72
2021/06/18 02:56:37;;;;;;;5.17;1.57;;;;;;;19.60;100.00;99209.86;1721252;83;20939;-72
2021/06/18 02:59:31;;;;;;;7.15;1.82;;;;;;;19.60;100.00;99218.35;1694507;84;21031;-66
2021/06/18 03:02:02;;;;;;;6.75;1.57;;;;;;;19.58;100.00;99213.53;1695404;83;21425;-67
2021/06/18 03:04:35;;;;;;;6.72;1.05;;;;;;;19.56;100.00;99207.38;1717836;83;20990;-68
2021/06/18 03:07:12;;;;;;;2.98;1.50;;;;;;;19.55;100.00;99206.97;1719364;82;20948;-68
2021/06/18 03:09:46;;;;;;;6.72;1.37;;;;;;;19.54;100.00;99198.54;1717091;83;20951;-67
2021/06/18 03:12:15;;;;;;;4.60;1.35;;;;;;;19.53;100.00;99195.46;1723743;83;20908;-68
2021/06/18 03:14:45;;;;;;;3.40;1.40;;;;;;;19.53;100.00;99200.34;1723657;82;21095;-67
2021/06/18 03:17:18;;;;;;;5.90;1.80;;;;;;;19.52;100.00;99201.25;1718073;82;21117;-68
2021/06/18 03:19:46;;;;;;;5.58;1.35;;;;;;;19.53;100.00;99202.15;1689143;84;21067;-68
2021/06/18 03:22:15;;;;;;;5.22;1.50;;;;;;;19.53;100.00;99203.48;1672425;85;21066;-67
2021/06/18 03:24:45;;;;;;;7.67;1.62;;;;;;;19.55;100.00;99207.84;1673890;85;21558;-68
2021/06/18 03:27:14;;;;;;;2.30;1.30;;;;;;;19.57;100.00;99205.09;1693343;84;21132;-68
2021/06/18 03:29:42;;;;;;;3.45;1.40;;;;;;;19.58;100.00;99209.52;1707952;83;21718;-65
2021/06/18 03:32:10;;;;;;;5.35;1.62;;;;;;;19.59;100.00;99209.92;1694986;83;20901;-66
2021/06/18 03:34:38;;;;;;;3.27;1.42;;;;;;;19.62;100.00;99205.78;1714047;82;21419;-65
2021/06/18 03:37:07;;;;;;;4.53;1.37;;;;;;;19.65;100.00;99207.86;1722613;82;21404;-65
2021/06/18 03:39:39;;;;;;;3.08;1.92;;;;;;;19.66;100.00;99200.23;1715234;81;21082;-69
2021/06/18 03:42:07;;;;;;;6.35;1.70;;;;;;;19.70;100.00;99202.31;1689863;85;20887;-76
2021/06/18 03:44:35;;;;;;;5.60;1.60;;;;;;;19.73;100.00;99194.15;1715503;82;21009;-65
2021/06/18 03:47:06;;;;;;;3.37;1.37;;;;;;;19.77;100.00;99185.92;1703629;84;21494;-71
2021/06/18 03:49:34;;;;;;;3.37;1.60;;;;;;;19.81;100.00;99186.20;1692894;83;20982;-70
2021/06/18 03:52:02;;;;;;;8.68;1.60;;;;;;;19.85;100.00;99182.91;1702136;84;21085;-69
2021/06/18 03:54:32;;;;;;;3.27;1.50;;;;;;;19.90;100.00;99186.77;1711509;83;20956;-70
2021/06/18 03:57:00;;;;;;;6.00;1.80;;;;;;;19.94;100.00;99185.70;1703320;82;20892;-69
2021/06/18 03:59:28;;;;;;;3.85;1.60;;;;;;;19.96;100.00;99182.02;1705354;82;20899;-68
2021/06/18 04:01:56;;;;;;;3.98;1.70;;;;;;;19.99;100.00;99185.02;1707211;82;21020;-68
2021/06/18 04:04:24;;;;;;;2.05;1.47;;;;;;;20.03;100.00;99183.48;1716272;82;21438;-65
2021/06/18 04:06:53;;;;;;;2.72;1.50;;;;;;;20.08;100.00;99175.25;1712641;82;20884;-64
2021/06/18 04:09:21;;;;;;;6.95;1.42;;;;;;;20.13;100.00;99179.45;1720129;82;20904;-67
2021/06/18 04:11:50;;;;;;;3.02;1.30;;;;;;;20.17;100.00;99169.48;1689918;85;21010;-73
2021/06/18 04:14:18;;;;;;;3.55;1.60;;;;;;;20.19;100.00;99177.44;1717474;83;20959;-66
2021/06/18 04:16:46;;;;;;;4.10;1.40;;;;;;;20.21;100.00;99175.09;1689959;85;21136;-66
2021/06/18 04:19:14;;;;;;;5.78;1.47;;;;;;;20.24;100.00;99178.98;1704308;84;20952;-69
2021/06/18 04:21:44;;;;;;;1.72;1.30;;;;;;;20.31;100.00;99183.59;1716659;83;21435;-66
2021/06/18 04:24:14;;;;;;;4.08;1.90;;;;;;;20.37;100.00;99185.55;1689228;85;20968;-66
2021/06/18 04:26:42;;;;;;;6.35;2.02;;;;;;;20.43;100.00;99187.98;1703658;84;21558;-70
2021/06/18 04:29:10;;;;;;;8.73;2.27;;;;;;;20.49;100.00;99188.17;1716283;83;21073;-71
2021/06/18 04:31:39;;;;;;;8.53;2.35;;;;;;;20.53;100.00;99187.09;1688823;85;20953;-71
2021/06/18 04:34:07;;;;;;;2.72;1.67;;;;;;;20.59;100.00;99189.96;1716475;83;20924;-71
2021/06/18 04:36:39;;;;;;;2.87;1.52;;;;;;;20.63;100.00;99184.39;1706395;83;21397;-72
2021/06/18 04:39:07;;;;;;;8.03;1.92;;;;;;;20.67;100.00;99183.30;1706677;84;20938;-72
2021/06/18 04:41:35;;;;;;;5.37;1.90;;;;;;;20.69;100.00;99182.76;1706426;84;21440;-72
2021/06/18 04:44:04;;;;;;;2.65;1.50;;;;;;;20.72;100.00;99183.95;1706660;84;20914;-72
2021/06/18 04:46:33;;;;;;;5.30;1.60;;;;;;;20.75;100.00;99187.83;1706411;84;20963;-72
2021/06/18 04:49:01;;;;;;;3.37;1.40;;;;;;;20.82;100.00;99194.28;1706709;84;21420;-72
2021/06/18 04:51:30;;;;;;;3.42;1.30;;;;;;;20.88;100.00;99206.05;1706522;84;21476;-72
2021/06/18 04:53:57;;;;;;;4.70;1.55;;;;;;;20.96;100.00;99203.88;1706662;84;21103;-71
2021/06/18 04:56:25;;;;;;;4.35;1.52;;;;;;;21.03;100.00;99210.69;1706386;84;20910;-71
2021/06/18 04:58:53;;;;;;;5.97;1.67;;;;;;;21.06;100.00;99196.66;1706346;84;20962;-72
2021/06/18 05:01:21;;;;;;;3.58;1.70;;;;;;;21.12;100.00;99198.17;1706609;84;20985;-72
2021/06/18 05:03:48;;;;;;;3.77;2.00;;;;;;;21.19;100.00;99200.95;1706398;84;20874;-72
2021/06/18 05:06:16;;;;;;;2.52;1.37;;;;;;;21.26;100.00;99195.73;1706692;84;21166;-72
2021/06/18 05:08:43;;;;;;;2.22;1.40;;;;;;;21.33;100.00;99197.67;1706328;84;20906;-72
2021/06/18 05:11:11;;;;;;;3.65;1.50;;;;;;;21.41;100.00;99202.66;1706654;84;20949;-72
2021/06/18 05:13:38;;;;;;;3.17;1.50;;;;;;;21.48;100.00;99195.56;1706383;84;21397;-72
2021/06/18 05:16:05;;;;;;;4.67;1.55;;;;;;;21.56;100.00;99196.52;1706673;84;21441;-72
2021/06/18 05:18:33;;;;;;;3.40;1.52;;;;;;;21.62;100.00;99199.77;1706319;84;21611;-72
2021/06/18 05:21:00;;;;;;;8.75;2.12;;;;;;;21.71;100.00;99205.63;1706611;84;20927;-71
2021/06/18 05:23:28;;;;;;;5.05;2.17;;;;;;;21.77;100.00;99204.87;1706412;84;20918;-71
2021/06/18 05:25:55;;;;;;;5.17;2.00;;;;;;;21.85;100.00;99206.69;1706621;84;20955;-71
2021/06/18 05:28:23;;;;;;;6.97;1.70;;;;;;;21.92;100.00;99204.55;1706416;84;20996;-72
2021/06/18 05:30:50;;;;;;;2.30;1.40;;;;;;;21.99;100.00;99203.29;1706686;84;21709;-72
2021/06/18 05:33:18;;;;;;;6.70;1.85;;;;;;;22.10;100.00;99204.11;1706334;84;20917;-72
2021/06/18 05:35:46;;;;;;;6.55;2.50;;;;;;;22.23;100.00;99201.17;1704741;82;20882;-72
2021/06/18 05:38:14;;;;;;;5.92;2.92;;;;;;;22.34;100.00;99197.94;1703854;82;21420;-72
2021/06/18 05:40:42;;;;;;;5.45;1.75;;;;;;;22.45;100.00;99204.48;1677048;84;21471;-72
2021/06/18 05:43:10;;;;;;;8.73;1.57;;;;;;;22.53;100.00;99204.94;1696087;83;21062;-72
2021/06/18 05:45:39;;;;;;;4.10;1.65;;;;;;;22.62;100.00;99200.41;1677094;84;20913;-73
2021/06/18 05:48:08;;;;;;;4.25;1.60;;;;;;;22.67;100.00;99197.46;1696151;83;20910;-73
2021/06/18 05:50:35;;;;;;;5.70;1.60;;;;;;;22.75;100.00;99197.08;1676983;84;20912;-72
2021/06/18 05:53:02;;;;;;;2.08;1.32;;;;;;;22.81;100.00;99201.67;1696160;83;20946;-72
2021/06/18 05:55:30;;;;;;;5.67;1.70;;;;;;;22.87;100.00;99197.30;1677025;84;21109;-72
2021/06/18 05:57:57;;;;;;;5.10;1.67;;;;;;;22.93;100.00;99192.92;1696068;83;20945;-72
2021/06/18 06:00:25;;;;;;;3.02;1.50;;;;;;;22.98;100.00;99202.08;1677055;84;20901;-73
2021/06/18 06:02:52;;;;;;;3.47;1.52;;;;;;;23.00;100.00;99197.48;1696082;83;20942;-73
2021/06/18 06:05:20;;;;;;;1.92;1.50;;;;;;;23.04;100.00;99205.77;1677032;84;20965;-72
2021/06/18 06:07:47;;;;;;;2.22;1.45;;;;;;;23.11;100.00;99213.02;1696102;83;21152;-72
2021/06/18 06:10:16;;;;;;;4.50;1.75;;;;;;;23.18;100.00;99205.02;1676987;84;20952;-72
2021/06/18 06:12:44;;;;;;;3.40;1.72;;;;;;;23.23;100.00;99210.53;1696196;83;21437;-73
2021/06/18 06:15:12;;;;;;;4.42;1.52;;;;;;;23.28;100.00;99213.44;1696432;83;20867;-72
2021/06/18 06:17:39;;;;;;;2.45;1.30;;;;;;;23.31;100.00;99220.86;1696305;83;20902;-72
2021/06/18 06:20:07;;;;;;;3.45;1.80;;;;;;;23.35;100.00;99213.48;1696399;83;21095;-72
2021/06/18 06:22:35;;;;;;;3.67;1.62;;;;;;;23.39;100.00;99208.31;1696206;83;21402;-73
2021/06/18 06:25:04;;;;;;;5.72;1.92;;;;;;;23.45;100.00;99203.91;1696467;83;21026;-72
2021/06/18 06:27:31;;;;;;;3.12;1.40;;;;;;;23.48;100.00;99203.73;1696226;83;20950;-72
2021/06/18 06:29:59;;;;;;;4.65;1.75;;;;;;;23.52;100.00;99202.13;1696457;83;21077;-72
2021/06/18 06:32:26;;;;;;;9.60;1.70;;;;;;;23.58;100.00;99200.93;1696187;83;21116;-72
2021/06/18 06:34:54;;;;;;;3.27;1.67;;;;;;;23.60;100.00;99203.05;1696090;83;21433;-72
2021/06/18 06:37:22;;;;;;;4.03;1.72;;;;;;;23.62;100.00;99207.00;1694240;84;20853;-72
2021/06/18 06:39:51;;;;;;;2.45;1.67;;;;;;;23.64;100.00;99203.27;1720997;83;20909;-72
2021/06/18 06:42:18;;;;;;;3.52;1.60;;;;;;;23.62;100.00;99209.70;1720864;83;20901;-73
2021/06/18 06:44:48;;;;;;;7.42;1.80;;;;;;;23.61;100.00;99199.41;1721059;83;20913;-72
2021/06/18 06:47:16;;;;;;;4.12;1.50;;;;;;;23.63;100.00;99184.03;1720840;83;21496;-72
2021/06/18 06:49:44;;;;;;;5.92;1.67;;;;;;;23.68;100.00;99180.62;1721067;83;21408;-72
2021/06/18 06:52:11;;;;;;;3.08;1.40;;;;;;;23.76;100.00;99189.11;1720794;83;21436;-72
2021/06/18 06:54:39;;;;;;;3.47;1.50;;;;;;;23.86;100.00;99187.59;1721128;83;20905;-71
2021/06/18 06:57:07;;;;;;;7.17;1.35;;;;;;;23.91;100.00;99190.02;1720855;83;21128;-72
2021/06/18 06:59:34;;;;;;;3.37;1.60;;;;;;;23.94;100.00;99180.88;1721023;83;21563;-72
2021/06/18 07:02:03;;;;;;;4.22;1.80;;;;;;;23.93;100.00;99179.15;1720805;83;21712;-73
2021/06/18 07:04:31;;;;;;;4.60;1.70;;;;;;;23.94;100.00;99184.92;1721022;83;20909;-71
2021/06/18 07:06:58;;;;;;;2.87;1.80;;;;;;;24.01;100.00;99178.20;1720990;83;20937;-72
2021/06/18 07:09:26;;;;;;;2.58;1.80;;;;;;;24.07;100.00;99180.53;1721121;83;21138;-73
2021/06/18 07:11:53;;;;;;;4.08;1.72;;;;;;;24.10;100.00;99180.34;1720848;83;20929;-71
2021/06/18 07:14:20;;;;;;;2.02;1.52;;;;;;;24.17;100.00;99177.20;1721106;83;20925;-73
2021/06/18 07:16:48;;;;;;;5.08;1.75;;;;;;;24.24;100.00;99181.74;1720946;83;20941;-73
2021/06/18 07:19:16;;;;;;;3.22;1.57;;;;;;;24.36;100.00;99189.10;1721256;83;20953;-73
2021/06/18 07:21:43;;;;;;;5.83;1.70;;;;;;;24.47;100.00;99192.48;1721228;83;21405;-73
2021/06/18 07:24:10;;;;;;;4.28;2.00;;;;;;;24.56;100.00;99196.43;1721366;83;20842;-72
2021/06/18 07:26:38;;;;;;;5.35;1.87;;;;;;;24.61;100.00;99203.78;1720867;83;21001;-72
2021/06/18 07:29:06;;;;;;;2.72;1.60;;;;;;;24.62;100.00;99211.78;1721089;83;21020;-72
2021/06/18 07:31:35;;;;;;;5.17;2.20;;;;;;;24.66;100.00;99217.85;1721236;83;20937;-73
2021/06/18 07:34:03;;;;;;;3.50;1.57;;;;;;;24.66;100.00;99226.81;1720887;83;21114;-73
2021/06/18 07:36:31;;;;;;;8.90;2.33;;;;;;;24.67;100.00;99227.19;1718544;83;20898;-73
2021/06/18 07:38:59;;;;;;;5.85;2.00;;;;;;;24.67;100.00;99219.10;1720355;83;20921;-72
2021/06/18 07:41:26;;;;;;;7.30;1.95;;;;;;;24.66;100.00;99224.11;1720895;83;20937;-73
2021/06/18 07:43:53;;;;;;;4.87;1.92;;;;;;;24.71;100.00;99219.77;1721409;83;20953;-73
2021/06/18 07:46:23;;;;;;;4.67;1.85;;;;;;;24.82;100.00;99210.52;1721265;83;21112;-73
2021/06/18 07:48:50;;;;;;;3.60;1.70;;;;;;;24.94;100.00;99202.99;1720787;83;21405;-73
2021/06/18 07:51:18;;;;;;;3.33;1.87;;;;;;;25.09;100.00;99210.17;1721051;83;21417;-73
2021/06/18 07:53:45;;;;;;;6.83;1.90;;;;;;;25.24;100.00;99202.04;1720926;83;20909;-73
2021/06/18 07:56:12;;;;;;;3.83;2.10;;;;;;;25.31;100.00;99196.62;1721118;83;20952;-73
2021/06/18 07:58:40;;;;;;;3.65;1.75;;;;;;;25.35;100.00;99211.66;1720794;83;21099;-72
2021/06/18 08:01:09;;;;;;;5.42;2.25;;;;;;;25.41;100.00;99213.95;1721132;83;20985;-72
2021/06/18 08:03:36;;;;;;;3.83;1.80;;;;;;;25.42;100.00;99204.39;1720826;83;20889;-73
2021/06/18 08:06:04;;;;;;;3.70;1.67;;;;;;;25.41;100.00;99205.84;1721087;83;20913;-72
2021/06/18 08:08:31;;;;;;;5.75;1.80;;;;;;;25.35;100.00;99203.55;1720857;83;20953;-73
2021/06/18 08:10:59;;;;;;;2.45;1.62;;;;;;;25.32;100.00;99203.27;1710468;83;21191;-73
2021/06/18 08:13:28;;;;;;;3.85;1.50;;;;;;;25.37;100.00;99217.81;1720818;83;20928;-73
2021/06/18 08:15:55;;;;;;;3.30;1.60;;;;;;;25.44;100.00;99211.05;1721154;83;21453;-73
2021/06/18 08:18:23;;;;;;;6.72;1.57;;;;;;;25.50;100.00;99215.17;1720778;83;21001;-73
2021/06/18 08:20:52;;;;;;;2.80;1.82;;;;;;;25.54;100.00;99211.30;1720766;83;20973;-72
2021/06/18 08:23:20;;;;;;;2.55;1.55;;;;;;;25.57;100.00;99210.64;1720848;83;21243;-72
2021/06/18 08:25:50;;;;;;;3.77;1.40;;;;;;;25.62;100.00;99203.58;1721037;83;20886;-73
2021/06/18 08:28:17;;;;;;;6.22;1.57;;;;;;;25.73;100.00;99207.33;1720871;83;20929;-73
2021/06/18 08:30:45;;;;;;;5.80;1.35;;;;;;;25.89;100.00;99204.45;1721080;83;20953;-73
2021/06/18 08:33:14;;;;;;;5.97;1.25;;;;;;;26.03;100.00;99222.47;1720843;83;21001;-73
2021/06/18 08:35:42;;;;;;;2.25;1.60;;;;;;;26.02;100.00;99207.22;1721032;83;21143;-73
2021/06/18 08:38:10;;;;;;;5.70;1.67;;;;;;;25.93;100.00;99197.00;1720707;83;20933;-73
2021/06/18 08:40:37;;;;;;;5.60;1.40;;;;;;;25.85;100.00;99196.17;1720795;83;21456;-73
2021/06/18 08:43:05;;;;;;;2.00;1.45;;;;;;;25.77;100.00;99197.66;1720997;83;20944;-73
2021/06/18 08:45:32;;;;;;;1.77;1.17;;;;;;;25.69;100.00;99197.70;1720821;83;20937;-73
2021/06/18 08:48:00;;;;;;;4.28;1.67;;;;;;;25.67;100.00;99198.28;1721127;83;21096;-73
2021/06/18 08:50:28;;;;;;;2.02;1.50;;;;;;;25.73;100.00;99205.98;1722213;83;21465;-73
2021/06/18 08:52:58;;;;;;;1.65;1.30;;;;;;;25.76;100.00;99206.26;1721167;83;20961;-73
2021/06/18 08:55:29;;;;;;;8.47;1.70;;;;;;;25.83;100.00;99210.28;1692106;84;20903;-73
2021/06/18 08:58:03;;;;;;;3.25;1.50;;;;;;;25.92;100.00;99212.35;1703213;84;20897;-73
2021/06/18 09:00:30;;;;;;;4.42;1.35;;;;;;;26.02;100.00;99213.48;1702196;84;21746;-72
2021/06/18 09:02:58;;;;;;;3.00;1.25;;;;;;;26.13;100.00;99211.41;1701747;84;21428;-73
2021/06/18 09:05:25;;;;;;;14.45;1.90;;;;;;;26.23;100.00;99212.49;1703051;84;20893;-68
2021/06/18 09:08:00;;;;;;;5.95;1.47;;;;;;;26.34;100.00;99210.43;1710569;82;20936;-68
2021/06/18 09:10:40;;;;;;;2.55;1.17;;;;;;;26.43;100.00;99207.56;1710394;82;20927;-68
2021/06/18 09:13:14;;;;;;;7.35;1.50;;;;;;;26.48;100.00;99199.99;1702955;83;21107;-69
2021/06/18 09:15:46;;;;;;;3.80;1.35;;;;;;;26.53;100.00;99202.78;1703184;83;20933;-69
2021/06/18 09:18:34;;;;;;;3.45;1.25;;;;;;;26.56;100.00;99197.64;1702936;84;20947;-69
2021/06/18 09:21:12;;;;;;;2.80;1.30;;;;;;;26.53;100.00;99191.09;1703110;84;21419;-67
2021/06/18 09:23:52;;;;;;;3.70;1.70;;;;;;;26.54;100.00;99180.66;1702925;83;21491;-68
2021/06/18 09:26:36;;;;;;;1.90;1.27;;;;;;;26.64;100.00;99184.44;1702872;84;21097;-68
2021/06/18 09:29:22;;;;;;;3.27;1.20;;;;;;;26.74;100.00;99177.39;1702567;84;20947;-68
2021/06/18 09:31:53;;;;;;;5.08;1.25;;;;;;;26.81;100.00;99177.80;1701078;83;21463;-69
2021/06/18 09:37:31;;;;;;;3.40;1.45;;;;;;;26.95;100.00;99175.83;1707174;83;21418;-69
2021/06/18 09:40:10;;;;;;;3.10;1.45;;;;;;;26.90;100.00;99173.94;1719117;82;21843;-69
2021/06/18 09:43:01;;;;;;;2.15;1.30;;;;;;;26.82;100.00;99166.88;1731825;82;20947;-69
2021/06/18 09:45:35;;;;;;;10.38;1.77;;;;;;;26.78;100.00;99169.91;1732406;82;20903;-69
2021/06/18 09:48:20;;;;;;;3.58;1.35;;;;;;;26.71;100.00;99168.63;1732219;82;20936;-69
2021/06/18 09:50:59;;;;;;;2.77;1.20;;;;;;;26.67;100.00;99167.98;1732526;82;21438;-69
2021/06/18 09:53:28;;;;;;;3.15;1.00;;;;;;;26.73;100.00;99171.59;1732252;82;21102;-69
2021/06/18 09:56:10;;;;;;;6.37;1.60;;;;;;;26.82;100.00;99176.34;1732441;82;20896;-69
2021/06/18 09:58:40;;;;;;;2.87;1.12;;;;;;;26.88;100.00;99166.91;1732348;82;20900;-69
2021/06/18 10:01:24;;;;;;;2.90;1.30;;;;;;;26.93;100.00;99173.72;1732027;82;20927;-68
2021/06/18 10:04:10;;;;;;;4.42;1.30;;;;;;;26.93;100.00;99171.50;1731923;82;21057;-69
2021/06/18 10:06:37;;;;;;;2.60;1.20;;;;;;;26.92;100.00;99172.48;1732081;82;21094;-68
2021/06/18 10:09:08;;;;;;;2.75;1.27;;;;;;;26.95;100.00;99168.20;1732137;82;20896;-69
2021/06/18 10:11:39;;;;;;;5.08;1.42;;;;;;;26.94;100.00;99175.94;1732481;82;20876;-69
2021/06/18 10:14:07;;;;;;;3.12;1.30;;;;;;;26.94;100.00;99177.30;1732202;82;20964;-69
2021/06/18 10:16:34;;;;;;;13.70;2.67;;;;;;;26.92;100.00;99176.05;1732543;82;21411;-69
2021/06/18 10:19:02;;;;;;;2.42;1.32;;;;;;;26.85;100.00;99179.31;1732220;82;21109;-69
2021/06/18 10:21:31;;;;;;;4.35;1.27;;;;;;;26.80;100.00;99167.95;1732369;82;21447;-69
2021/06/18 10:24:01;;;;;;;5.15;1.32;;;;;;;26.79;100.00;99171.64;1732263;82;20995;-69
2021/06/18 10:26:29;;;;;;;5.78;1.30;;;;;;;26.83;100.00;99169.95;1732378;82;20908;-70
2021/06/18 10:28:58;;;;;;;3.20;1.25;;;;;;;26.92;100.00;99172.48;1732205;82;20998;-69
2021/06/18 10:31:35;;;;;;;4.28;1.50;;;;;;;27.06;100.00;99177.81;1732463;82;21532;-71
2021/06/18 10:34:18;;;;;;;12.03;2.80;;;;;;;27.16;100.00;99168.03;1732182;82;20903;-72
2021/06/18 10:36:45;;;;;;;10.95;2.22;;;;;;;27.18;100.00;99168.78;1732521;82;20907;-73
2021/06/18 10:39:22;;;;;;;5.53;1.40;;;;;;;27.23;100.00;99173.38;1714649;82;21475;-71
2021/06/18 10:41:54;;;;;;;5.53;1.42;;;;;;;27.28;100.00;99172.54;1696184;83;20943;-72
2021/06/18 10:44:42;;;;;;;3.87;1.47;;;;;;;27.35;100.00;99176.14;1707190;84;21796;-71
2021/06/18 10:47:36;;;;;;;3.95;1.25;;;;;;;27.36;100.00;99168.39;1694395;83;20940;-71
2021/06/18 10:50:04;;;;;;;3.85;1.10;;;;;;;27.31;100.00;99169.23;1689858;84;20873;-64
2021/06/18 10:52:39;;;;;;;1.47;1.20;;;;;;;27.19;100.00;99163.75;1714729;83;20907;-63
2021/06/18 10:55:07;;;;;;;2.17;1.47;;;;;;;27.03;100.00;99160.93;1691077;84;20945;-66
2021/06/18 10:57:36;;;;;;;3.85;1.40;;;;;;;26.87;100.00;99171.95;1684643;84;21085;-64
2021/06/18 11:00:15;;;;;;;10.35;1.70;;;;;;;26.69;100.00;99167.38;1712049;83;20876;-63
2021/06/18 11:02:44;;;;;;;7.25;2.10;;;;;;;26.58;100.00;99164.58;1691748;84;20912;-64
2021/06/18 11:05:32;;;;;;;2.12;1.27;;;;;;;26.51;100.00;99166.86;1686322;84;21419;-64
2021/06/18 11:08:24;;;;;;;10.78;1.60;;;;;;;26.51;100.00;99170.05;1706818;83;21498;-64
2021/06/18 11:10:56;;;;;;;2.42;1.42;;;;;;;26.47;100.00;99161.74;1696175;83;21101;-64
2021/06/18 11:13:20;;;;;;;3.20;1.37;;;;;;;26.47;100.00;99162.61;1706546;84;21412;-63
2021/06/18 11:15:49;;;;;;;1.90;1.10;;;;;;;26.44;100.00;99158.77;1696152;83;20886;-64
2021/06/18 11:18:21;;;;;;;5.80;1.62;;;;;;;26.41;100.00;99164.88;1695502;84;20917;-64
2021/06/18 11:20:51;;;;;;;11.00;1.67;;;;;;;26.35;100.00;99162.13;1698031;84;20904;-64
2021/06/18 11:23:32;;;;;;;4.35;1.15;;;;;;;26.30;100.00;99173.72;1711148;82;21383;-63
2021/06/18 11:26:03;;;;;;;2.80;1.50;;;;;;;26.21;100.00;99170.31;1710729;84;20999;-64
2021/06/18 11:28:35;;;;;;;6.50;2.15;;;;;;;26.09;100.00;99173.38;1711018;82;20987;-64
2021/06/18 11:31:22;;;;;;;3.63;1.80;;;;;;;25.97;100.00;99172.36;1710978;82;20947;-63
2021/06/18 11:33:53;;;;;;;3.02;1.40;;;;;;;25.90;100.00;99175.11;1711137;82;21181;-64
2021/06/18 11:36:31;;;;;;;8.18;2.10;;;;;;;25.91;100.00;99172.78;1710409;82;21095;-64
2021/06/18 11:39:09;;;;;;;8.00;2.10;;;;;;;25.97;100.00;99174.20;1707644;83;20940;-64
2021/06/18 11:41:42;;;;;;;6.22;1.80;;;;;;;25.98;100.00;99176.80;1695240;84;20905;-64
2021/06/18 11:44:11;;;;;;;35.25;4.67;;;;;;;26.01;100.00;99182.48;1696226;84;21423;-64